createdAt,value
2018-03-30T00:00:09.169Z,4.05555555556
2018-03-30T00:00:21.334Z,4.05555555556
2018-03-30T00:00:33.485Z,4.05555555556
2018-03-30T00:00:45.856Z,4.05555555556
2018-03-30T00:00:58.188Z,4.05555555556
2018-03-30T00:01:10.343Z,4.05555555556
2018-03-30T00:01:22.501Z,4.11111111111
2018-03-30T00:01:34.632Z,4.05555555556
2018-03-30T00:01:46.808Z,4.11111111111
2018-03-30T00:01:58.962Z,4.11111111111
2018-03-30T00:02:11.122Z,4.05555555556
2018-03-30T00:02:23.260Z,4.11111111111
2018-03-30T00:02:35.401Z,4.11111111111
2018-03-30T00:02:47.566Z,4.11111111111
2018-03-30T00:02:59.703Z,4.11111111111
2018-03-30T00:03:11.861Z,4.11111111111
2018-03-30T00:03:24.040Z,4.11111111111
2018-03-30T00:03:36.198Z,4.11111111111
2018-03-30T00:03:48.334Z,4.11111111111
2018-03-30T00:04:00.497Z,4.11111111111
2018-03-30T00:04:12.650Z,4.11111111111
2018-03-30T00:04:24.819Z,4.11111111111
2018-03-30T00:04:37.041Z,4.11111111111
2018-03-30T00:04:49.570Z,4.11111111111
2018-03-30T00:05:01.852Z,4.11111111111
2018-03-30T00:05:14.046Z,4.11111111111
2018-03-30T00:05:26.195Z,4.05555555556
2018-03-30T00:05:38.353Z,4.11111111111
2018-03-30T00:05:50.534Z,4.11111111111
2018-03-30T00:06:02.755Z,4.11111111111
2018-03-30T00:06:14.893Z,4.16666666667
2018-03-30T00:06:27.062Z,4.16666666667
2018-03-30T00:06:39.215Z,4.16666666667
2018-03-30T00:06:51.365Z,4.11111111111
2018-03-30T00:07:03.572Z,4.16666666667
2018-03-30T00:07:15.715Z,4.11111111111
2018-03-30T00:07:27.880Z,4.16666666667
2018-03-30T00:07:40.032Z,4.16666666667
2018-03-30T00:07:52.182Z,4.16666666667
2018-03-30T00:08:04.338Z,4.16666666667
2018-03-30T00:08:16.491Z,4.16666666667
2018-03-30T00:08:28.653Z,4.16666666667
2018-03-30T00:08:40.824Z,4.16666666667
2018-03-30T00:08:52.974Z,4.16666666667
2018-03-30T00:09:05.111Z,4.11111111111
2018-03-30T00:09:17.262Z,4.16666666667
2018-03-30T00:09:29.447Z,4.16666666667
2018-03-30T00:09:41.871Z,4.16666666667
2018-03-30T00:09:54.009Z,4.16666666667
2018-03-30T00:10:06.164Z,4.16666666667
2018-03-30T00:10:18.323Z,4.16666666667
2018-03-30T00:10:30.456Z,4.16666666667
2018-03-30T00:10:42.621Z,4.16666666667
2018-03-30T00:10:54.778Z,4.16666666667
2018-03-30T00:11:06.918Z,4.16666666667
2018-03-30T00:11:19.120Z,4.16666666667
2018-03-30T00:11:31.295Z,4.16666666667
2018-03-30T00:11:43.438Z,4.16666666667
2018-03-30T00:11:55.604Z,4.16666666667
2018-03-30T00:12:07.811Z,4.16666666667
2018-03-30T00:12:19.977Z,4.16666666667
2018-03-30T00:12:32.125Z,4.16666666667
2018-03-30T00:12:44.443Z,4.16666666667
2018-03-30T00:12:56.730Z,4.16666666667
2018-03-30T00:13:08.890Z,4.16666666667
2018-03-30T00:13:21.034Z,4.16666666667
2018-03-30T00:13:33.176Z,4.16666666667
2018-03-30T00:13:45.358Z,4.16666666667
2018-03-30T00:13:57.540Z,4.16666666667
2018-03-30T00:14:09.684Z,4.16666666667
2018-03-30T00:14:21.832Z,4.22222222222
2018-03-30T00:14:33.990Z,4.16666666667
2018-03-30T00:14:46.164Z,4.22222222222
2018-03-30T00:14:58.369Z,4.16666666667
2018-03-30T00:15:10.511Z,4.22222222222
2018-03-30T00:15:22.698Z,4.16666666667
2018-03-30T00:15:34.879Z,4.22222222222
2018-03-30T00:15:47.004Z,4.16666666667
2018-03-30T00:15:59.221Z,4.16666666667
2018-03-30T00:16:11.397Z,4.22222222222
2018-03-30T00:16:23.538Z,4.16666666667
2018-03-30T00:16:35.698Z,4.16666666667
2018-03-30T00:16:47.876Z,4.22222222222
2018-03-30T00:17:00.076Z,4.22222222222
2018-03-30T00:17:12.239Z,4.22222222222
2018-03-30T00:17:24.430Z,4.22222222222
2018-03-30T00:17:36.593Z,4.22222222222
2018-03-30T00:17:48.737Z,4.22222222222
2018-03-30T00:18:00.878Z,4.22222222222
2018-03-30T00:18:13.088Z,4.22222222222
2018-03-30T00:18:25.263Z,4.22222222222
2018-03-30T00:18:37.418Z,4.22222222222
2018-03-30T00:18:49.573Z,4.27777777778
2018-03-30T00:19:01.736Z,4.22222222222
2018-03-30T00:19:13.903Z,4.27777777778
2018-03-30T00:19:26.049Z,4.22222222222
2018-03-30T00:19:38.212Z,4.22222222222
2018-03-30T00:19:50.361Z,4.22222222222
2018-03-30T00:20:02.504Z,4.27777777778
2018-03-30T00:20:14.658Z,4.27777777778
2018-03-30T00:20:26.787Z,4.27777777778
2018-03-30T00:20:38.945Z,4.27777777778
2018-03-30T00:20:51.138Z,4.22222222222
2018-03-30T00:21:03.289Z,4.27777777778
2018-03-30T00:21:15.459Z,4.27777777778
2018-03-30T00:21:27.627Z,4.27777777778
2018-03-30T00:21:39.778Z,4.27777777778
2018-03-30T00:21:51.942Z,4.22222222222
2018-03-30T00:22:04.152Z,4.27777777778
2018-03-30T00:22:16.337Z,4.27777777778
2018-03-30T00:22:28.492Z,4.27777777778
2018-03-30T00:22:40.696Z,4.27777777778
2018-03-30T00:22:52.836Z,4.27777777778
2018-03-30T00:23:05.003Z,4.27777777778
2018-03-30T00:23:17.155Z,4.27777777778
2018-03-30T00:23:29.368Z,4.27777777778
2018-03-30T00:23:41.550Z,4.27777777778
2018-03-30T00:23:53.713Z,4.27777777778
2018-03-30T00:24:05.884Z,4.27777777778
2018-03-30T00:24:18.058Z,4.33333333333
2018-03-30T00:24:30.226Z,4.27777777778
2018-03-30T00:24:42.370Z,4.33333333333
2018-03-30T00:24:54.514Z,4.33333333333
2018-03-30T00:25:06.676Z,4.33333333333
2018-03-30T00:25:18.852Z,4.33333333333
2018-03-30T00:25:30.979Z,4.33333333333
2018-03-30T00:25:43.149Z,4.33333333333
2018-03-30T00:25:55.318Z,4.33333333333
2018-03-30T00:26:07.485Z,4.33333333333
2018-03-30T00:26:19.705Z,4.33333333333
2018-03-30T00:26:31.880Z,4.33333333333
2018-03-30T00:26:44.233Z,4.33333333333
2018-03-30T00:26:56.375Z,4.33333333333
2018-03-30T00:27:08.602Z,4.33333333333
2018-03-30T00:27:20.782Z,4.33333333333
2018-03-30T00:27:32.939Z,4.33333333333
2018-03-30T00:27:45.082Z,4.33333333333
2018-03-30T00:27:57.233Z,4.33333333333
2018-03-30T00:28:09.407Z,4.38888888889
2018-03-30T00:28:21.560Z,4.33333333333
2018-03-30T00:28:33.712Z,4.38888888889
2018-03-30T00:28:45.864Z,4.33333333333
2018-03-30T00:28:58.033Z,4.33333333333
2018-03-30T00:29:10.184Z,4.38888888889
2018-03-30T00:29:22.345Z,4.38888888889
2018-03-30T00:29:34.497Z,4.38888888889
2018-03-30T00:29:46.654Z,4.33333333333
2018-03-30T00:29:58.834Z,4.38888888889
2018-03-30T00:30:11.007Z,4.38888888889
2018-03-30T00:30:23.166Z,4.38888888889
2018-03-30T00:30:35.327Z,4.44444444444
2018-03-30T00:30:47.473Z,4.38888888889
2018-03-30T00:30:59.639Z,4.38888888889
2018-03-30T00:31:11.794Z,4.44444444444
2018-03-30T00:31:23.936Z,4.44444444444
2018-03-30T00:31:36.097Z,4.44444444444
2018-03-30T00:31:48.280Z,4.44444444444
2018-03-30T00:32:00.480Z,4.44444444444
2018-03-30T00:32:12.653Z,4.44444444444
2018-03-30T00:32:24.809Z,4.44444444444
2018-03-30T00:32:36.996Z,4.44444444444
2018-03-30T00:32:49.140Z,4.44444444444
2018-03-30T00:33:01.299Z,4.44444444444
2018-03-30T00:33:13.467Z,4.44444444444
2018-03-30T00:33:25.788Z,4.44444444444
2018-03-30T00:33:38.025Z,4.5
2018-03-30T00:33:50.173Z,4.5
2018-03-30T00:34:02.320Z,4.44444444444
2018-03-30T00:34:14.514Z,4.5
2018-03-30T00:34:26.733Z,4.5
2018-03-30T00:34:38.944Z,4.5
2018-03-30T00:34:51.089Z,4.5
2018-03-30T00:35:03.280Z,4.5
2018-03-30T00:35:15.447Z,4.5
2018-03-30T00:35:27.602Z,4.5
2018-03-30T00:35:39.766Z,4.5
2018-03-30T00:35:51.982Z,4.5
2018-03-30T00:36:04.171Z,4.5
2018-03-30T00:36:16.349Z,4.5
2018-03-30T00:36:28.490Z,4.5
2018-03-30T00:36:40.694Z,4.55555555556
2018-03-30T00:36:52.864Z,4.5
2018-03-30T00:37:05.048Z,4.5
2018-03-30T00:37:17.227Z,4.5
2018-03-30T00:37:29.376Z,4.5
2018-03-30T00:37:41.583Z,4.5
2018-03-30T00:37:53.748Z,4.55555555556
2018-03-30T00:38:05.888Z,4.55555555556
2018-03-30T00:38:18.067Z,4.5
2018-03-30T00:38:30.241Z,4.55555555556
2018-03-30T00:38:42.405Z,4.5
2018-03-30T00:38:54.582Z,4.55555555556
2018-03-30T00:39:06.738Z,4.55555555556
2018-03-30T00:39:18.909Z,4.55555555556
2018-03-30T00:39:31.131Z,4.55555555556
2018-03-30T00:39:43.588Z,4.55555555556
2018-03-30T00:39:55.753Z,4.5
2018-03-30T00:40:07.989Z,4.55555555556
2018-03-30T00:40:20.152Z,4.5
2018-03-30T00:40:32.325Z,4.55555555556
2018-03-30T00:40:44.519Z,4.5
2018-03-30T00:40:56.692Z,4.5
2018-03-30T00:41:08.839Z,4.5
2018-03-30T00:41:21.058Z,4.5
2018-03-30T00:41:33.213Z,4.5
2018-03-30T00:41:45.405Z,4.5
2018-03-30T00:41:57.577Z,4.5
2018-03-30T00:42:09.760Z,4.5
2018-03-30T00:42:21.923Z,4.5
2018-03-30T00:42:34.102Z,4.44444444444
2018-03-30T00:42:46.261Z,4.44444444444
2018-03-30T00:42:58.429Z,4.5
2018-03-30T00:43:10.585Z,4.5
2018-03-30T00:43:22.803Z,4.44444444444
2018-03-30T00:43:34.951Z,4.44444444444
2018-03-30T00:43:47.107Z,4.44444444444
2018-03-30T00:43:59.271Z,4.44444444444
2018-03-30T00:44:11.435Z,4.44444444444
2018-03-30T00:44:23.584Z,4.44444444444
2018-03-30T00:44:35.790Z,4.44444444444
2018-03-30T00:44:47.987Z,4.5
2018-03-30T00:45:00.190Z,4.44444444444
2018-03-30T00:45:12.339Z,4.44444444444
2018-03-30T00:45:24.495Z,4.44444444444
2018-03-30T00:45:36.652Z,4.5
2018-03-30T00:45:48.801Z,4.5
2018-03-30T00:46:00.952Z,4.5
2018-03-30T00:46:13.109Z,4.5
2018-03-30T00:46:25.270Z,4.5
2018-03-30T00:46:37.445Z,4.5
2018-03-30T00:46:49.618Z,4.5
2018-03-30T00:47:01.812Z,4.5
2018-03-30T00:47:13.974Z,4.5
2018-03-30T00:47:26.122Z,4.5
2018-03-30T00:47:38.277Z,4.5
2018-03-30T00:47:50.421Z,4.5
2018-03-30T00:48:02.833Z,4.5
2018-03-30T00:48:14.968Z,4.5
2018-03-30T00:48:27.120Z,4.5
2018-03-30T00:48:39.334Z,4.5
2018-03-30T00:48:51.499Z,4.5
2018-03-30T00:49:03.817Z,4.55555555556
2018-03-30T00:49:16.013Z,4.55555555556
2018-03-30T00:49:28.213Z,4.55555555556
2018-03-30T00:49:40.386Z,4.5
2018-03-30T00:49:52.526Z,4.5
2018-03-30T00:50:04.692Z,4.55555555556
2018-03-30T00:50:16.849Z,4.55555555556
2018-03-30T00:50:28.981Z,4.55555555556
2018-03-30T00:50:41.137Z,4.55555555556
2018-03-30T00:50:53.310Z,4.55555555556
2018-03-30T00:51:05.462Z,4.55555555556
2018-03-30T00:51:17.602Z,4.55555555556
2018-03-30T00:51:29.741Z,4.55555555556
2018-03-30T00:51:41.883Z,4.55555555556
2018-03-30T00:51:54.025Z,4.55555555556
2018-03-30T00:52:06.258Z,4.55555555556
2018-03-30T00:52:18.407Z,4.55555555556
2018-03-30T00:52:30.536Z,4.55555555556
2018-03-30T00:52:42.720Z,4.55555555556
2018-03-30T00:52:55.089Z,4.55555555556
2018-03-30T00:53:07.239Z,4.55555555556
2018-03-30T00:53:19.487Z,4.55555555556
2018-03-30T00:53:31.629Z,4.61111111111
2018-03-30T00:53:43.775Z,4.55555555556
2018-03-30T00:53:55.984Z,4.55555555556
2018-03-30T00:54:08.160Z,4.55555555556
2018-03-30T00:54:20.320Z,4.55555555556
2018-03-30T00:54:32.460Z,4.61111111111
2018-03-30T00:54:44.613Z,4.55555555556
2018-03-30T00:54:56.771Z,4.55555555556
2018-03-30T00:55:09.077Z,4.61111111111
2018-03-30T00:55:21.220Z,4.55555555556
2018-03-30T00:55:33.368Z,4.55555555556
2018-03-30T00:55:45.527Z,4.55555555556
2018-03-30T00:55:57.697Z,4.55555555556
2018-03-30T00:56:09.856Z,4.61111111111
2018-03-30T00:56:22.015Z,4.55555555556
2018-03-30T00:56:34.167Z,4.55555555556
2018-03-30T00:56:46.313Z,4.55555555556
2018-03-30T00:56:58.476Z,4.55555555556
2018-03-30T00:57:10.634Z,4.55555555556
2018-03-30T00:57:22.941Z,4.55555555556
2018-03-30T00:57:35.190Z,4.55555555556
2018-03-30T00:57:47.349Z,4.55555555556
2018-03-30T00:57:59.498Z,4.55555555556
2018-03-30T00:58:11.653Z,4.55555555556
2018-03-30T00:58:23.975Z,4.55555555556
2018-03-30T00:58:36.133Z,4.55555555556
2018-03-30T00:58:48.288Z,4.55555555556
2018-03-30T00:59:00.443Z,4.55555555556
2018-03-30T00:59:12.636Z,4.55555555556
2018-03-30T00:59:24.765Z,4.55555555556
2018-03-30T00:59:36.933Z,4.55555555556
2018-03-30T00:59:49.069Z,4.55555555556
2018-03-30T01:00:01.236Z,4.55555555556
2018-03-30T01:00:13.400Z,4.5
2018-03-30T01:00:25.559Z,4.5
2018-03-30T01:00:37.748Z,4.55555555556
2018-03-30T01:00:49.878Z,4.55555555556
2018-03-30T01:01:02.034Z,4.5
2018-03-30T01:01:14.180Z,4.55555555556
2018-03-30T01:01:26.348Z,4.5
2018-03-30T01:01:38.490Z,4.55555555556
2018-03-30T01:01:50.710Z,4.5
2018-03-30T01:02:02.856Z,4.5
2018-03-30T01:02:14.982Z,4.5
2018-03-30T01:02:27.159Z,4.5
2018-03-30T01:02:39.395Z,4.5
2018-03-30T01:02:51.545Z,4.5
2018-03-30T01:03:03.933Z,4.5
2018-03-30T01:03:16.167Z,4.5
2018-03-30T01:03:28.338Z,4.5
2018-03-30T01:03:40.468Z,4.5
2018-03-30T01:03:52.612Z,4.5
2018-03-30T01:04:04.762Z,4.5
2018-03-30T01:04:17.293Z,4.5
2018-03-30T01:04:29.453Z,4.5
2018-03-30T01:04:41.883Z,4.5
2018-03-30T01:04:54.108Z,4.5
2018-03-30T01:05:06.266Z,4.5
2018-03-30T01:05:18.433Z,4.5
2018-03-30T01:05:30.567Z,4.5
2018-03-30T01:05:42.715Z,4.44444444444
2018-03-30T01:05:54.880Z,4.44444444444
2018-03-30T01:06:07.049Z,4.5
2018-03-30T01:06:19.227Z,4.44444444444
2018-03-30T01:06:31.380Z,4.44444444444
2018-03-30T01:06:43.567Z,4.5
2018-03-30T01:06:55.735Z,4.44444444444
2018-03-30T01:07:07.896Z,4.44444444444
2018-03-30T01:07:20.086Z,4.44444444444
2018-03-30T01:07:32.237Z,4.44444444444
2018-03-30T01:07:44.408Z,4.44444444444
2018-03-30T01:07:56.556Z,4.44444444444
2018-03-30T01:08:08.691Z,4.44444444444
2018-03-30T01:08:20.863Z,4.44444444444
2018-03-30T01:08:33.040Z,4.44444444444
2018-03-30T01:08:45.186Z,4.44444444444
2018-03-30T01:08:57.751Z,4.38888888889
2018-03-30T01:09:09.930Z,4.44444444444
2018-03-30T01:09:22.078Z,4.38888888889
2018-03-30T01:09:34.218Z,4.44444444444
2018-03-30T01:09:46.371Z,4.38888888889
2018-03-30T01:09:58.517Z,4.44444444444
2018-03-30T01:10:10.638Z,4.44444444444
2018-03-30T01:10:22.799Z,4.38888888889
2018-03-30T01:10:34.936Z,4.38888888889
2018-03-30T01:10:47.086Z,4.38888888889
2018-03-30T01:10:59.265Z,4.38888888889
2018-03-30T01:11:11.413Z,4.38888888889
2018-03-30T01:11:23.584Z,4.38888888889
2018-03-30T01:11:35.777Z,4.38888888889
2018-03-30T01:11:47.941Z,4.38888888889
2018-03-30T01:12:00.124Z,4.38888888889
2018-03-30T01:12:12.285Z,4.38888888889
2018-03-30T01:12:24.434Z,4.33333333333
2018-03-30T01:12:36.569Z,4.33333333333
2018-03-30T01:12:48.731Z,4.33333333333
2018-03-30T01:13:00.956Z,4.33333333333
2018-03-30T01:13:13.110Z,4.33333333333
2018-03-30T01:13:25.274Z,4.33333333333
2018-03-30T01:13:37.430Z,4.33333333333
2018-03-30T01:13:49.563Z,4.33333333333
2018-03-30T01:14:01.708Z,4.33333333333
2018-03-30T01:14:13.883Z,4.33333333333
2018-03-30T01:14:26.093Z,4.33333333333
2018-03-30T01:14:38.231Z,4.33333333333
2018-03-30T01:14:50.431Z,4.33333333333
2018-03-30T01:15:02.578Z,4.33333333333
2018-03-30T01:15:14.724Z,4.33333333333
2018-03-30T01:15:26.896Z,4.33333333333
2018-03-30T01:15:39.026Z,4.33333333333
2018-03-30T01:15:51.234Z,4.33333333333
2018-03-30T01:16:03.447Z,4.33333333333
2018-03-30T01:16:15.605Z,4.33333333333
2018-03-30T01:16:27.776Z,4.33333333333
2018-03-30T01:16:40.001Z,4.33333333333
2018-03-30T01:16:52.154Z,4.33333333333
2018-03-30T01:17:04.306Z,4.33333333333
2018-03-30T01:17:16.456Z,4.33333333333
2018-03-30T01:17:28.614Z,4.33333333333
2018-03-30T01:17:40.751Z,4.33333333333
2018-03-30T01:17:52.904Z,4.33333333333
2018-03-30T01:18:05.111Z,4.33333333333
2018-03-30T01:18:17.337Z,4.33333333333
2018-03-30T01:18:29.509Z,4.33333333333
2018-03-30T01:18:41.665Z,4.33333333333
2018-03-30T01:18:53.820Z,4.33333333333
2018-03-30T01:19:05.968Z,4.33333333333
2018-03-30T01:19:18.148Z,4.33333333333
2018-03-30T01:19:30.303Z,4.27777777778
2018-03-30T01:19:42.461Z,4.27777777778
2018-03-30T01:19:54.621Z,4.27777777778
2018-03-30T01:20:06.784Z,4.33333333333
2018-03-30T01:20:18.939Z,4.33333333333
2018-03-30T01:20:31.095Z,4.27777777778
2018-03-30T01:20:43.255Z,4.33333333333
2018-03-30T01:20:55.430Z,4.27777777778
2018-03-30T01:21:07.595Z,4.27777777778
2018-03-30T01:21:19.757Z,4.33333333333
2018-03-30T01:21:32.042Z,4.27777777778
2018-03-30T01:21:44.204Z,4.27777777778
2018-03-30T01:21:56.365Z,4.27777777778
2018-03-30T01:22:08.524Z,4.27777777778
2018-03-30T01:22:20.729Z,4.27777777778
2018-03-30T01:22:32.895Z,4.27777777778
2018-03-30T01:22:45.117Z,4.27777777778
2018-03-30T01:22:57.532Z,4.27777777778
2018-03-30T01:23:09.698Z,4.27777777778
2018-03-30T01:23:21.847Z,4.27777777778
2018-03-30T01:23:34.030Z,4.27777777778
2018-03-30T01:23:46.188Z,4.27777777778
2018-03-30T01:23:58.403Z,4.27777777778
2018-03-30T01:24:10.549Z,4.27777777778
2018-03-30T01:24:22.704Z,4.27777777778
2018-03-30T01:24:34.831Z,4.27777777778
2018-03-30T01:24:46.965Z,4.22222222222
2018-03-30T01:24:59.147Z,4.27777777778
2018-03-30T01:25:11.294Z,4.27777777778
2018-03-30T01:25:23.470Z,4.27777777778
2018-03-30T01:25:35.633Z,4.27777777778
2018-03-30T01:25:47.800Z,4.22222222222
2018-03-30T01:25:59.958Z,4.22222222222
2018-03-30T01:26:12.167Z,4.27777777778
2018-03-30T01:26:24.313Z,4.22222222222
2018-03-30T01:26:36.524Z,4.22222222222
2018-03-30T01:26:48.665Z,4.27777777778
2018-03-30T01:27:00.848Z,4.22222222222
2018-03-30T01:27:13.021Z,4.22222222222
2018-03-30T01:27:25.197Z,4.22222222222
2018-03-30T01:27:37.342Z,4.22222222222
2018-03-30T01:27:49.475Z,4.22222222222
2018-03-30T01:28:01.607Z,4.22222222222
2018-03-30T01:28:13.786Z,4.22222222222
2018-03-30T01:28:25.976Z,4.22222222222
2018-03-30T01:28:38.180Z,4.22222222222
2018-03-30T01:28:50.326Z,4.22222222222
2018-03-30T01:29:02.463Z,4.22222222222
2018-03-30T01:29:14.633Z,4.22222222222
2018-03-30T01:29:26.828Z,4.22222222222
2018-03-30T01:29:38.967Z,4.16666666667
2018-03-30T01:29:51.127Z,4.22222222222
2018-03-30T01:30:03.292Z,4.22222222222
2018-03-30T01:30:15.465Z,4.22222222222
2018-03-30T01:30:27.659Z,4.22222222222
2018-03-30T01:30:39.789Z,4.22222222222
2018-03-30T01:30:51.954Z,4.22222222222
2018-03-30T01:31:04.106Z,4.22222222222
2018-03-30T01:31:16.286Z,4.16666666667
2018-03-30T01:31:28.546Z,4.16666666667
2018-03-30T01:31:40.713Z,4.22222222222
2018-03-30T01:31:52.878Z,4.16666666667
2018-03-30T01:32:05.077Z,4.16666666667
2018-03-30T01:32:17.250Z,4.22222222222
2018-03-30T01:32:29.435Z,4.16666666667
2018-03-30T01:32:41.612Z,4.16666666667
2018-03-30T01:32:53.776Z,4.16666666667
2018-03-30T01:33:05.932Z,4.16666666667
2018-03-30T01:33:18.095Z,4.16666666667
2018-03-30T01:33:30.262Z,4.16666666667
2018-03-30T01:33:42.412Z,4.16666666667
2018-03-30T01:33:54.576Z,4.16666666667
2018-03-30T01:34:06.727Z,4.16666666667
2018-03-30T01:34:18.890Z,4.16666666667
2018-03-30T01:34:31.204Z,4.16666666667
2018-03-30T01:34:43.334Z,4.16666666667
2018-03-30T01:34:55.475Z,4.16666666667
2018-03-30T01:35:07.612Z,4.16666666667
2018-03-30T01:35:19.745Z,4.16666666667
2018-03-30T01:35:31.878Z,4.16666666667
2018-03-30T01:35:44.016Z,4.16666666667
2018-03-30T01:35:56.205Z,4.16666666667
2018-03-30T01:36:08.382Z,4.16666666667
2018-03-30T01:36:20.544Z,4.16666666667
2018-03-30T01:36:32.688Z,4.16666666667
2018-03-30T01:36:44.862Z,4.16666666667
2018-03-30T01:36:56.997Z,4.16666666667
2018-03-30T01:37:09.186Z,4.16666666667
2018-03-30T01:37:21.356Z,4.16666666667
2018-03-30T01:37:33.534Z,4.16666666667
2018-03-30T01:37:45.709Z,4.16666666667
2018-03-30T01:37:57.871Z,4.16666666667
2018-03-30T01:38:10.014Z,4.16666666667
2018-03-30T01:38:22.183Z,4.16666666667
2018-03-30T01:38:34.334Z,4.16666666667
2018-03-30T01:38:46.505Z,4.16666666667
2018-03-30T01:38:58.659Z,4.16666666667
2018-03-30T01:39:10.831Z,4.16666666667
2018-03-30T01:39:22.984Z,4.16666666667
2018-03-30T01:39:35.187Z,4.16666666667
2018-03-30T01:39:47.366Z,4.16666666667
2018-03-30T01:39:59.523Z,4.16666666667
2018-03-30T01:40:11.678Z,4.16666666667
2018-03-30T01:40:23.828Z,4.11111111111
2018-03-30T01:40:35.978Z,4.16666666667
2018-03-30T01:40:48.130Z,4.16666666667
2018-03-30T01:41:00.308Z,4.11111111111
2018-03-30T01:41:12.467Z,4.11111111111
2018-03-30T01:41:24.616Z,4.16666666667
2018-03-30T01:41:36.800Z,4.11111111111
2018-03-30T01:41:48.954Z,4.11111111111
2018-03-30T01:42:01.155Z,4.11111111111
2018-03-30T01:42:13.295Z,4.16666666667
2018-03-30T01:42:25.436Z,4.11111111111
2018-03-30T01:42:37.623Z,4.11111111111
2018-03-30T01:42:49.770Z,4.11111111111
2018-03-30T01:43:01.915Z,4.11111111111
2018-03-30T01:43:14.067Z,4.16666666667
2018-03-30T01:43:26.216Z,4.11111111111
2018-03-30T01:43:38.396Z,4.11111111111
2018-03-30T01:43:50.551Z,4.11111111111
2018-03-30T01:44:02.690Z,4.16666666667
2018-03-30T01:44:14.840Z,4.11111111111
2018-03-30T01:44:26.989Z,4.11111111111
2018-03-30T01:44:39.490Z,4.11111111111
2018-03-30T01:44:51.646Z,4.11111111111
2018-03-30T01:45:03.857Z,4.11111111111
2018-03-30T01:45:16.055Z,4.11111111111
2018-03-30T01:45:28.222Z,4.11111111111
2018-03-30T01:45:40.364Z,4.11111111111
2018-03-30T01:45:52.510Z,4.11111111111
2018-03-30T01:46:04.696Z,4.11111111111
2018-03-30T01:46:16.853Z,4.11111111111
2018-03-30T01:46:29.002Z,4.11111111111
2018-03-30T01:46:41.165Z,4.11111111111
2018-03-30T01:46:53.312Z,4.11111111111
2018-03-30T01:47:05.472Z,4.05555555556
2018-03-30T01:47:17.622Z,4.11111111111
2018-03-30T01:47:29.757Z,4.05555555556
2018-03-30T01:47:41.920Z,4.11111111111
2018-03-30T01:47:54.062Z,4.11111111111
2018-03-30T01:48:06.402Z,4.11111111111
2018-03-30T01:48:18.549Z,4.11111111111
2018-03-30T01:48:30.751Z,4.05555555556
2018-03-30T01:48:42.922Z,4.05555555556
2018-03-30T01:48:55.265Z,4.05555555556
2018-03-30T01:49:07.448Z,4.05555555556
2018-03-30T01:49:19.612Z,4.11111111111
2018-03-30T01:49:31.778Z,4.05555555556
2018-03-30T01:49:43.978Z,4.05555555556
2018-03-30T01:49:56.167Z,4.05555555556
2018-03-30T01:50:08.344Z,4.05555555556
2018-03-30T01:50:20.493Z,4.05555555556
2018-03-30T01:50:32.649Z,4.05555555556
2018-03-30T01:50:44.822Z,4.05555555556
2018-03-30T01:50:56.987Z,4.05555555556
2018-03-30T01:51:09.165Z,4.05555555556
2018-03-30T01:51:21.303Z,4.05555555556
2018-03-30T01:51:33.448Z,4.05555555556
2018-03-30T01:51:45.580Z,4.05555555556
2018-03-30T01:51:57.768Z,4
2018-03-30T01:52:09.927Z,4.05555555556
2018-03-30T01:52:22.130Z,4
2018-03-30T01:52:34.353Z,4
2018-03-30T01:52:46.498Z,4
2018-03-30T01:52:58.626Z,4
2018-03-30T01:53:10.936Z,4
2018-03-30T01:53:23.103Z,4
2018-03-30T01:53:35.260Z,4
2018-03-30T01:53:47.451Z,4
2018-03-30T01:53:59.612Z,4
2018-03-30T01:54:11.780Z,4
2018-03-30T01:54:23.953Z,4
2018-03-30T01:54:36.087Z,3.94444444444
2018-03-30T01:54:48.276Z,3.94444444444
2018-03-30T01:55:00.631Z,3.94444444444
2018-03-30T01:55:12.980Z,3.94444444444
2018-03-30T01:55:25.123Z,3.94444444444
2018-03-30T01:55:37.346Z,3.94444444444
2018-03-30T01:55:49.488Z,3.94444444444
2018-03-30T01:56:01.611Z,3.94444444444
2018-03-30T01:56:13.772Z,3.94444444444
2018-03-30T01:56:25.922Z,3.94444444444
2018-03-30T01:56:38.044Z,3.94444444444
2018-03-30T01:56:50.253Z,3.88888888889
2018-03-30T01:57:02.394Z,3.88888888889
2018-03-30T01:57:14.530Z,3.88888888889
2018-03-30T01:57:26.715Z,3.88888888889
2018-03-30T01:57:38.859Z,3.88888888889
2018-03-30T01:57:51.017Z,3.88888888889
2018-03-30T01:58:03.191Z,3.88888888889
2018-03-30T01:58:15.365Z,3.88888888889
2018-03-30T01:58:27.564Z,3.88888888889
2018-03-30T01:58:39.719Z,3.88888888889
2018-03-30T01:58:51.867Z,3.83333333333
2018-03-30T01:59:04.197Z,3.88888888889
2018-03-30T01:59:16.525Z,3.83333333333
2018-03-30T01:59:28.688Z,3.83333333333
2018-03-30T01:59:40.831Z,3.83333333333
2018-03-30T01:59:52.970Z,3.83333333333
2018-03-30T02:00:05.125Z,3.83333333333
2018-03-30T02:00:17.290Z,3.83333333333
2018-03-30T02:00:29.471Z,3.83333333333
2018-03-30T02:00:41.644Z,3.83333333333
2018-03-30T02:00:53.875Z,3.77777777778
2018-03-30T02:01:06.661Z,3.83333333333
2018-03-30T02:01:18.876Z,3.77777777778
2018-03-30T02:01:31.083Z,3.77777777778
2018-03-30T02:01:43.249Z,3.77777777778
2018-03-30T02:01:55.400Z,3.77777777778
2018-03-30T02:02:07.575Z,3.77777777778
2018-03-30T02:02:19.732Z,3.77777777778
2018-03-30T02:02:31.944Z,3.72222222222
2018-03-30T02:02:44.091Z,3.77777777778
2018-03-30T02:02:56.233Z,3.72222222222
2018-03-30T02:03:08.404Z,3.72222222222
2018-03-30T02:03:20.549Z,3.72222222222
2018-03-30T02:03:32.704Z,3.72222222222
2018-03-30T02:03:44.864Z,3.72222222222
2018-03-30T02:03:57.100Z,3.72222222222
2018-03-30T02:04:09.312Z,3.72222222222
2018-03-30T02:04:21.493Z,3.72222222222
2018-03-30T02:04:33.682Z,3.72222222222
2018-03-30T02:04:46.029Z,3.72222222222
2018-03-30T02:04:58.211Z,3.66666666667
2018-03-30T02:05:10.371Z,3.66666666667
2018-03-30T02:05:22.533Z,3.66666666667
2018-03-30T02:05:34.695Z,3.66666666667
2018-03-30T02:05:46.832Z,3.66666666667
2018-03-30T02:05:58.998Z,3.66666666667
2018-03-30T02:06:11.156Z,3.66666666667
2018-03-30T02:06:23.311Z,3.66666666667
2018-03-30T02:06:35.455Z,3.66666666667
2018-03-30T02:06:47.587Z,3.66666666667
2018-03-30T02:06:59.727Z,3.66666666667
2018-03-30T02:07:11.946Z,3.66666666667
2018-03-30T02:07:24.108Z,3.61111111111
2018-03-30T02:07:36.310Z,3.61111111111
2018-03-30T02:07:48.479Z,3.61111111111
2018-03-30T02:08:00.655Z,3.61111111111
2018-03-30T02:08:12.804Z,3.61111111111
2018-03-30T02:08:24.956Z,3.61111111111
2018-03-30T02:08:37.151Z,3.61111111111
2018-03-30T02:08:49.534Z,3.61111111111
2018-03-30T02:09:01.720Z,3.61111111111
2018-03-30T02:09:13.873Z,3.61111111111
2018-03-30T02:09:26.007Z,3.55555555556